Time;durP1;ratioP1;P1;durP2;ratioP2;P2;SDS_P1;SDS_P2;PMS_P1;PMS_P2;Temp;Humidity;BMP_temperature;BMP_pressure;BME280_temperature;BME280_humidity;BME280_pressure;Samples;Min_cycle;Max_cycle;Signal;HPM_P1;HPM_P2
2021/06/26 00:02:44;;;;;;;22.70;8.43;;;;;;;15.58;78.11;98978.69;2395604;74;21004;-68
2021/06/26 00:05:45;;;;;;;24.10;9.88;;;;;;;15.59;77.38;98986.98;2394979;74;21052;-69
2021/06/26 00:08:47;;;;;;;26.45;10.13;;;;;;;15.50;77.45;98987.72;2394951;74;21590;-65
2021/06/26 00:11:49;;;;;;;24.32;11.55;;;;;;;15.45;77.53;98996.48;2395166;74;21008;-66
2021/06/26 00:14:51;;;;;;;27.30;13.03;;;;;;;15.42;77.75;98999.38;2395244;74;21071;-63
2021/06/26 00:17:53;;;;;;;27.60;13.23;;;;;;;15.44;78.14;99007.17;2395570;74;20996;-62
2021/06/26 00:20:54;;;;;;;29.17;13.67;;;;;;;15.53;78.55;99008.63;2395360;74;21012;-62
2021/06/26 00:23:56;;;;;;;30.33;15.03;;;;;;;15.63;78.64;99017.14;2395523;74;21343;-62
2021/06/26 00:26:57;;;;;;;27.97;11.47;;;;;;;15.72;78.66;99023.87;2395320;74;21008;-62
2021/06/26 00:29:59;;;;;;;28.10;14.20;;;;;;;15.77;77.78;99023.49;2396686;74;21534;-62
2021/06/26 00:33:00;;;;;;;28.40;13.58;;;;;;;15.85;78.25;99022.45;2399739;74;21394;-63
2021/06/26 00:36:02;;;;;;;27.10;12.50;;;;;;;15.91;78.32;99021.11;2399489;74;20996;-62
2021/06/26 00:39:03;;;;;;;26.37;10.30;;;;;;;15.90;77.49;99020.75;2399846;74;20932;-62
2021/06/26 00:42:05;;;;;;;26.37;11.43;;;;;;;15.75;77.01;99014.36;2399344;74;21114;-65
2021/06/26 00:45:06;;;;;;;28.93;15.10;;;;;;;15.70;77.15;99009.08;2400013;74;20948;-65
2021/06/26 00:48:07;;;;;;;32.38;16.12;;;;;;;15.65;77.97;99008.13;2399788;74;20959;-63
2021/06/26 00:51:09;;;;;;;28.67;14.00;;;;;;;15.67;78.22;99010.16;2399869;74;21442;-64
2021/06/26 00:54:10;;;;;;;25.73;12.87;;;;;;;15.70;78.60;99003.33;2400099;74;20955;-66
2021/06/26 00:57:12;;;;;;;26.77;13.40;;;;;;;15.72;78.72;99004.03;2399810;74;21603;-67
2021/06/26 01:00:13;;;;;;;30.10;14.40;;;;;;;15.68;78.56;99010.52;2400014;74;21000;-68
2021/06/26 01:03:15;;;;;;;33.88;16.93;;;;;;;15.67;78.29;99001.39;2399665;74;20975;-69
2021/06/26 01:06:16;;;;;;;30.27;17.17;;;;;;;15.66;79.15;99005.86;2399944;74;21463;-63
2021/06/26 01:09:18;;;;;;;28.77;16.48;;;;;;;15.74;78.79;99010.03;2399138;74;21007;-71
2021/06/26 01:12:19;;;;;;;31.43;17.17;;;;;;;15.68;78.29;99003.91;2399729;74;20917;-68
2021/06/26 01:15:21;;;;;;;34.20;18.83;;;;;;;15.67;78.86;99010.65;2399843;74;20960;-62
2021/06/26 01:18:22;;;;;;;35.60;19.30;;;;;;;15.72;79.07;99015.10;2399644;74;21638;-65
2021/06/26 01:21:24;;;;;;;33.53;18.55;;;;;;;15.78;79.49;99011.13;2399560;74;20968;-64
2021/06/26 01:24:26;;;;;;;28.83;14.45;;;;;;;15.69;79.48;99010.89;2399676;74;20936;-61
2021/06/26 01:27:28;;;;;;;29.30;16.35;;;;;;;15.56;79.45;99013.66;2399565;74;20972;-66
2021/06/26 01:30:29;;;;;;;36.57;18.73;;;;;;;15.39;79.79;99005.73;2399948;74;20972;-66
2021/06/26 01:33:31;;;;;;;31.10;18.17;;;;;;;15.28;79.96;99003.58;2399672;74;20941;-62
2021/06/26 01:36:32;;;;;;;38.27;18.73;;;;;;;15.14;80.22;98998.02;2399616;74;20942;-64
2021/06/26 01:39:34;;;;;;;30.30;15.60;;;;;;;15.09;80.68;98998.88;2399691;74;20963;-67
2021/06/26 01:42:35;;;;;;;26.43;13.93;;;;;;;15.09;80.67;99000.20;2399638;74;20972;-64
2021/06/26 01:45:37;;;;;;;23.97;10.40;;;;;;;15.01;80.67;99002.09;2399771;74;21817;-62
2021/06/26 01:48:38;;;;;;;26.10;13.07;;;;;;;15.03;80.86;99007.63;2399715;74;20979;-61
2021/06/26 01:51:39;;;;;;;33.37;16.83;;;;;;;15.07;80.59;99006.92;2399675;74;20947;-62
2021/06/26 01:54:41;;;;;;;35.10;17.37;;;;;;;15.09;80.50;99011.59;2399655;74;20975;-66
2021/06/26 01:57:42;;;;;;;34.70;19.03;;;;;;;15.11;80.31;99000.41;2399578;74;20909;-62
2021/06/26 02:00:44;;;;;;;31.23;17.50;;;;;;;15.14;80.64;99007.27;2399739;74;20921;-66
2021/06/26 02:03:46;;;;;;;32.20;18.73;;;;;;;15.18;80.63;99004.27;2399973;74;21008;-66
2021/06/26 02:06:48;;;;;;;34.88;17.42;;;;;;;15.25;80.92;99006.80;2399490;74;20998;-61
2021/06/26 02:09:49;;;;;;;30.43;17.37;;;;;;;15.25;80.70;99005.47;2399628;74;20940;-67
2021/06/26 02:12:52;;;;;;;31.42;17.20;;;;;;;15.32;80.65;99003.70;2399743;74;20981;-65
2021/06/26 02:15:53;;;;;;;30.47;16.73;;;;;;;15.30;80.70;99006.47;2399587;74;20951;-64
2021/06/26 02:18:55;;;;;;;33.02;17.60;;;;;;;15.31;80.09;99007.29;2399776;74;20948;-67
2021/06/26 02:21:57;;;;;;;23.18;10.95;;;;;;;15.31;80.40;99000.20;2398935;74;21044;-63
2021/06/26 02:25:03;;;;;;;28.40;13.97;;;;;;;15.22;79.80;99003.56;2399223;74;21098;-69
2021/06/26 02:28:02;;;;;;;24.32;11.43;;;;;;;15.08;80.01;99007.27;2369657;74;21463;-67
2021/06/26 02:31:03;;;;;;;24.33;10.37;;;;;;;14.93;80.12;99017.67;2399729;74;20984;-68
2021/06/26 02:34:04;;;;;;;27.80;13.60;;;;;;;14.81;80.02;99016.34;2399744;74;20990;-64
2021/06/26 02:37:06;;;;;;;27.45;13.98;;;;;;;14.83;80.33;99009.63;2399782;74;21007;-61
2021/06/26 02:40:08;;;;;;;25.43;12.98;;;;;;;14.91;80.01;99004.59;2399625;74;21381;-62
2021/06/26 02:43:09;;;;;;;28.47;13.15;;;;;;;14.95;79.05;99002.08;2399766;74;20913;-64
2021/06/26 02:46:11;;;;;;;25.70;11.97;;;;;;;14.98;79.33;99004.48;2399520;74;20945;-62
2021/06/26 02:49:12;;;;;;;24.80;13.13;;;;;;;15.00;79.27;99006.54;2399562;74;21427;-62
2021/06/26 02:52:14;;;;;;;27.82;12.13;;;;;;;15.00;79.72;98997.30;2399455;74;20995;-64
2021/06/26 02:55:15;;;;;;;26.57;10.80;;;;;;;14.92;79.40;99000.16;2399461;74;20983;-65
2021/06/26 02:58:17;;;;;;;24.73;11.20;;;;;;;14.72;79.25;99008.64;2399728;74;20979;-65
2021/06/26 03:01:18;;;;;;;24.97;11.57;;;;;;;14.56;79.30;99000.98;2399631;74;20967;-63
2021/06/26 03:04:19;;;;;;;27.60;14.70;;;;;;;14.37;79.72;99002.83;2399839;74;20947;-64
2021/06/26 03:07:21;;;;;;;28.90;14.47;;;;;;;14.38;80.49;99010.29;2399535;74;20964;-70
2021/06/26 03:10:22;;;;;;;29.80;15.47;;;;;;;14.46;80.85;99013.17;2400008;74;21463;-70
2021/06/26 03:13:24;;;;;;;29.00;14.58;;;;;;;14.64;81.34;99014.11;2399727;74;20940;-65
2021/06/26 03:16:25;;;;;;;30.57;15.87;;;;;;;14.85;80.94;99022.22;2399720;74;20999;-61
2021/06/26 03:19:27;;;;;;;30.82;16.45;;;;;;;15.09;80.50;99022.65;2399833;74;20975;-64
2021/06/26 03:22:29;;;;;;;33.78;16.07;;;;;;;15.19;80.15;99027.09;2399310;74;20987;-64
2021/06/26 03:25:30;;;;;;;30.30;16.30;;;;;;;15.30;80.10;99034.20;2399965;74;21465;-67
2021/06/26 03:28:32;;;;;;;29.40;16.13;;;;;;;15.41;79.95;99045.25;2399752;74;21007;-65
2021/06/26 03:31:33;;;;;;;30.27;17.17;;;;;;;15.50;79.83;99050.30;2395533;74;21428;-67
2021/06/26 03:34:35;;;;;;;35.00;17.57;;;;;;;15.57;79.73;99052.37;2392440;74;20940;-67
2021/06/26 03:37:36;;;;;;;33.00;17.03;;;;;;;15.67;79.81;99068.33;2392557;74;20948;-68
2021/06/26 03:40:37;;;;;;;29.37;15.50;;;;;;;15.74;79.62;99069.52;2392667;74;20961;-67
2021/06/26 03:43:39;;;;;;;28.33;16.57;;;;;;;15.76;79.42;99068.95;2392533;74;21153;-69
2021/06/26 03:46:41;;;;;;;32.17;16.95;;;;;;;15.83;79.62;99073.77;2392515;74;21038;-66
2021/06/26 03:49:43;;;;;;;31.35;16.45;;;;;;;15.89;79.29;99075.46;2392566;74;21006;-63
2021/06/26 03:52:44;;;;;;;31.73;16.77;;;;;;;16.02;79.42;99071.83;2392559;74;21442;-62
2021/06/26 03:55:51;;;;;;;32.48;15.88;;;;;;;16.10;79.31;99075.57;2392538;74;20936;-64
2021/06/26 03:58:49;;;;;;;31.07;16.32;;;;;;;16.22;79.36;99063.61;2364766;74;20914;-63
2021/06/26 04:01:51;;;;;;;30.03;15.80;;;;;;;16.44;79.42;99066.20;2392656;74;20910;-63
2021/06/26 04:04:53;;;;;;;;;;;;;;;16.73;79.16;99064.78;2395233;74;20984;-62
2021/06/26 04:07:54;;;;;;;30.48;17.45;;;;;;;16.85;79.04;99065.56;2392286;74;20107;-62
2021/06/26 04:10:56;;;;;;;31.13;17.27;;;;;;;16.91;79.06;99062.43;2392414;74;21412;-63
2021/06/26 04:13:57;;;;;;;28.95;16.27;;;;;;;17.08;79.20;99064.99;2392301;74;20980;-62
2021/06/26 04:16:58;;;;;;;29.23;16.40;;;;;;;17.29;79.18;99062.34;2392520;74;21005;-62
2021/06/26 04:20:00;;;;;;;29.70;16.32;;;;;;;17.59;78.55;99057.54;2392504;74;21587;-61
2021/06/26 04:23:02;;;;;;;28.15;16.15;;;;;;;17.59;78.26;99055.39;2391988;74;21051;-63
2021/06/26 04:26:03;;;;;;;29.35;16.05;;;;;;;17.60;78.31;99057.91;2392584;74;20936;-63
2021/06/26 04:29:05;;;;;;;31.55;17.30;;;;;;;17.63;78.46;99053.66;2392339;74;20967;-62
2021/06/26 04:32:06;;;;;;;29.82;15.78;;;;;;;17.85;78.70;99054.43;2392208;74;21467;-62
2021/06/26 04:35:08;;;;;;;30.40;16.10;;;;;;;17.96;77.78;99057.52;2392386;74;20960;-63
2021/06/26 04:38:10;;;;;;;28.20;15.63;;;;;;;17.99;77.92;99055.41;2392625;74;20920;-64
2021/06/26 04:41:11;;;;;;;27.05;14.78;;;;;;;18.10;77.96;99054.48;2392194;74;21003;-63
2021/06/26 04:44:13;;;;;;;27.93;14.40;;;;;;;18.30;77.33;99059.80;2392129;74;20965;-63
2021/06/26 04:47:14;;;;;;;29.55;15.18;;;;;;;18.29;77.88;99055.00;2392753;74;20972;-62
2021/06/26 04:50:16;;;;;;;29.52;14.30;;;;;;;18.38;77.85;99048.52;2392520;74;20932;-63
2021/06/26 04:53:17;;;;;;;27.90;14.70;;;;;;;18.45;77.78;99049.64;2392406;74;21434;-63
2021/06/26 04:56:19;;;;;;;29.63;14.83;;;;;;;18.61;77.03;99041.12;2392327;74;20964;-62
2021/06/26 04:59:20;;;;;;;25.50;14.13;;;;;;;18.75;77.64;99042.49;2392371;74;21517;-62
2021/06/26 05:02:22;;;;;;;25.60;13.45;;;;;;;18.94;76.98;99035.88;2392519;74;20995;-64
2021/06/26 05:05:23;;;;;;;24.60;13.53;;;;;;;19.13;77.02;99023.53;2392227;74;20981;-65
2021/06/26 05:08:25;;;;;;;;;;;;;;;19.38;75.80;99028.73;2394794;74;21047;-68
2021/06/26 05:11:27;;;;;;;25.23;12.90;;;;;;;19.57;74.99;99035.79;2392196;74;20095;-68
2021/06/26 05:14:28;;;;;;;26.82;12.68;;;;;;;19.69;74.92;99036.44;2392310;74;21482;-68
2021/06/26 05:17:30;;;;;;;27.40;12.58;;;;;;;19.65;74.68;99042.55;2392445;74;20948;-66
2021/06/26 05:20:31;;;;;;;31.40;13.62;;;;;;;19.86;74.99;99041.50;2392354;74;20987;-65
2021/06/26 05:23:33;;;;;;;26.30;12.73;;;;;;;19.99;73.97;99048.64;2392580;74;20975;-68
2021/06/26 05:26:35;;;;;;;25.55;12.40;;;;;;;20.01;74.07;99040.50;2391746;74;20976;-63
2021/06/26 05:29:41;;;;;;;27.40;12.33;;;;;;;20.13;74.19;99037.98;2392311;74;21489;-64
2021/06/26 05:32:40;;;;;;;23.87;12.20;;;;;;;20.48;73.62;99036.84;2329725;76;21559;-62
2021/06/26 05:35:41;;;;;;;26.52;11.97;;;;;;;20.85;72.47;99030.53;2316255;76;21000;-65
2021/06/26 05:38:42;;;;;;;26.37;11.53;;;;;;;21.16;72.69;99032.73;2316253;77;21024;-63
2021/06/26 05:41:44;;;;;;;26.45;11.45;;;;;;;21.26;71.06;99030.80;2316428;76;21008;-65
2021/06/26 05:44:45;;;;;;;22.95;9.95;;;;;;;21.31;70.61;99028.51;2316274;76;21055;-67
2021/06/26 05:47:47;;;;;;;26.07;10.53;;;;;;;21.34;70.21;99026.86;2316255;76;21594;-66
2021/06/26 05:50:48;;;;;;;23.47;10.25;;;;;;;21.19;70.06;99043.09;2316244;77;21020;-68
2021/06/26 05:53:50;;;;;;;24.05;9.85;;;;;;;21.10;70.52;99044.87;2316219;76;21499;-68
2021/06/26 05:56:51;;;;;;;21.97;9.90;;;;;;;21.14;70.79;99053.41;2316361;77;21055;-68
2021/06/26 05:59:52;;;;;;;21.65;10.08;;;;;;;21.25;70.69;99057.16;2316264;76;21063;-68
2021/06/26 06:02:54;;;;;;;23.05;9.65;;;;;;;21.26;70.07;99066.33;2315947;76;21126;-68
2021/06/26 06:05:55;;;;;;;21.45;9.50;;;;;;;21.25;70.19;99067.83;2316246;76;20996;-69
2021/06/26 06:08:57;;;;;;;22.00;9.48;;;;;;;21.20;70.09;99071.45;2316258;76;21553;-68
2021/06/26 06:11:58;;;;;;;21.07;9.00;;;;;;;21.10;69.35;99076.87;2316370;76;21017;-67
2021/06/26 06:15:00;;;;;;;21.75;9.63;;;;;;;21.03;68.79;99072.67;2316241;76;21039;-69
2021/06/26 06:18:01;;;;;;;23.65;9.23;;;;;;;21.07;69.87;99069.19;2316216;77;21553;-68
2021/06/26 06:21:02;;;;;;;22.52;9.20;;;;;;;21.06;69.69;99067.02;2316278;76;21016;-69
2021/06/26 06:24:04;;;;;;;24.18;10.20;;;;;;;21.08;69.91;99065.02;2316187;76;21507;-69
2021/06/26 06:27:06;;;;;;;22.93;10.10;;;;;;;21.34;69.12;99064.71;2315597;77;21028;-68
2021/06/26 06:30:08;;;;;;;22.65;9.35;;;;;;;21.61;68.26;99059.22;2316499;76;21002;-68
2021/06/26 06:33:10;;;;;;;;;;;;;;;21.65;68.12;99058.90;2376248;75;21021;-68
2021/06/26 06:36:11;;;;;;;21.20;9.13;;;;;;;21.83;68.64;99052.98;2399933;74;20087;-68
2021/06/26 06:39:13;;;;;;;22.45;9.90;;;;;;;22.23;67.90;99060.80;2399577;74;20956;-68
2021/06/26 06:42:15;;;;;;;22.65;9.98;;;;;;;22.58;65.95;99059.39;2399607;74;20936;-68
2021/06/26 06:45:16;;;;;;;24.77;10.58;;;;;;;22.73;66.10;99055.55;2399766;74;20951;-68
2021/06/26 06:48:18;;;;;;;23.00;9.85;;;;;;;23.03;65.96;99052.73;2399675;74;21486;-66
2021/06/26 06:51:19;;;;;;;22.22;9.25;;;;;;;23.52;65.71;99047.31;2399702;74;21010;-67
2021/06/26 06:54:20;;;;;;;21.52;9.50;;;;;;;24.14;65.03;99050.28;2399631;74;21490;-68
2021/06/26 06:57:24;;;;;;;19.65;7.92;;;;;;;24.74;62.38;99047.41;2399430;74;21023;-67
2021/06/26 07:00:25;;;;;;;20.50;7.85;;;;;;;24.46;60.88;99056.45;2369581;74;20921;-68
2021/06/26 07:03:27;;;;;;;22.80;7.80;;;;;;;24.45;61.46;99058.80;2399830;74;21431;-68
2021/06/26 07:06:31;;;;;;;21.02;8.63;;;;;;;24.20;60.20;99065.14;2399788;74;20967;-68
2021/06/26 07:09:33;;;;;;;22.40;9.88;;;;;;;23.70;61.63;99062.31;2399780;74;21032;-68
2021/06/26 07:12:34;;;;;;;21.15;9.78;;;;;;;23.50;61.36;99065.89;2399800;74;20952;-68
2021/06/26 07:15:36;;;;;;;20.82;9.73;;;;;;;23.05;63.15;99065.94;2399956;74;21000;-68
2021/06/26 07:18:37;;;;;;;;;;;;;;;22.56;64.86;99067.58;2402530;74;20941;-67
2021/06/26 07:21:39;;;;;;;26.57;9.53;;;;;;;22.62;65.57;99064.23;2400090;74;20094;-67
2021/06/26 07:24:41;;;;;;;22.75;11.18;;;;;;;22.74;65.41;99060.77;2399476;74;21003;-68
2021/06/26 07:27:42;;;;;;;24.32;10.53;;;;;;;23.13;64.45;99057.44;2399903;74;21028;-68
2021/06/26 07:30:43;;;;;;;24.15;11.18;;;;;;;23.23;64.56;99044.36;2399830;74;21000;-67
2021/06/26 07:33:45;;;;;;;23.42;10.08;;;;;;;23.07;64.08;99047.36;2399698;74;21513;-68
2021/06/26 07:36:47;;;;;;;23.90;10.58;;;;;;;22.88;64.64;99043.20;2399213;74;20980;-67
2021/06/26 07:39:50;;;;;;;23.30;10.10;;;;;;;22.51;66.00;99045.02;2368831;74;20971;-66
2021/06/26 07:42:51;;;;;;;24.63;11.38;;;;;;;22.28;66.54;99050.47;2399866;74;21035;-69
2021/06/26 07:45:53;;;;;;;22.25;11.05;;;;;;;22.06;66.99;99049.73;2399842;74;21004;-66
2021/06/26 07:48:54;;;;;;;24.47;11.25;;;;;;;21.84;67.00;99045.80;2399850;74;21507;-67
2021/06/26 07:51:56;;;;;;;25.02;11.43;;;;;;;21.83;68.20;99039.63;2399844;74;21067;-66
2021/06/26 07:54:57;;;;;;;24.52;11.48;;;;;;;22.09;67.47;99038.72;2399836;74;21012;-68
2021/06/26 07:57:58;;;;;;;21.87;10.63;;;;;;;21.94;67.80;99039.34;2400043;74;20999;-68
2021/06/26 08:01:00;;;;;;;24.18;10.78;;;;;;;21.90;67.74;99041.17;2399860;74;21004;-68
2021/06/26 08:04:02;;;;;;;24.12;10.45;;;;;;;21.79;67.62;99040.95;2399850;74;21498;-64
2021/06/26 08:07:04;;;;;;;23.57;10.45;;;;;;;21.86;67.80;99037.15;2399605;74;20936;-69
2021/06/26 08:10:05;;;;;;;21.80;9.93;;;;;;;22.43;66.84;99047.19;2399754;74;20944;-69
2021/06/26 08:13:06;;;;;;;21.75;9.98;;;;;;;22.54;66.29;99036.19;2399716;74;20956;-68
2021/06/26 08:16:08;;;;;;;;;;;;;;;22.53;66.77;99035.84;2402136;74;20995;-68
2021/06/26 08:19:10;;;;;;;24.70;10.10;;;;;;;22.47;66.30;99037.84;2399546;74;20365;-69
2021/06/26 08:22:11;;;;;;;25.05;10.40;;;;;;;22.50;66.02;99041.52;2399907;74;20980;-68
2021/06/26 08:25:13;;;;;;;25.37;10.75;;;;;;;22.49;66.10;99043.34;2399672;74;20936;-68
2021/06/26 08:28:14;;;;;;;21.35;9.65;;;;;;;22.36;66.51;99042.17;2399809;74;20952;-68
2021/06/26 08:31:16;;;;;;;20.20;8.48;;;;;;;22.69;65.73;99039.02;2399619;74;20943;-67
2021/06/26 08:34:17;;;;;;;22.00;9.98;;;;;;;23.25;63.06;99030.33;2399739;74;20952;-67
2021/06/26 08:37:19;;;;;;;19.82;7.60;;;;;;;23.54;61.84;99029.74;2399713;74;20968;-67
2021/06/26 08:40:20;;;;;;;22.05;8.73;;;;;;;23.57;60.39;99024.03;2399717;74;20940;-66
2021/06/26 08:43:22;;;;;;;21.33;8.40;;;;;;;23.73;62.98;99020.98;2399804;74;20908;-68
2021/06/26 08:46:23;;;;;;;20.43;9.13;;;;;;;24.10;62.85;99014.95;2399638;74;20948;-65
2021/06/26 08:49:25;;;;;;;19.85;8.03;;;;;;;24.54;60.64;99004.13;2399852;74;21534;-65
2021/06/26 08:52:26;;;;;;;23.02;8.23;;;;;;;24.73;60.55;99006.85;2399887;74;20996;-68
2021/06/26 08:55:28;;;;;;;21.05;8.20;;;;;;;24.76;57.89;99005.66;2399731;74;20990;-66
2021/06/26 08:58:29;;;;;;;21.82;7.90;;;;;;;24.53;58.72;99015.86;2399573;74;20956;-66
2021/06/26 09:01:31;;;;;;;22.00;7.85;;;;;;;24.39;59.44;99012.95;2399592;74;20944;-64
2021/06/26 09:04:32;;;;;;;18.55;7.05;;;;;;;24.48;60.39;99016.41;2399560;74;20948;-68
2021/06/26 09:07:34;;;;;;;18.90;7.45;;;;;;;24.81;60.07;99023.37;2399602;74;20994;-67
2021/06/26 09:10:36;;;;;;;20.30;7.67;;;;;;;24.52;59.20;99023.08;2399447;74;20944;-68
2021/06/26 09:13:37;;;;;;;23.20;6.85;;;;;;;24.20;59.13;99021.44;2399843;74;21102;-64
2021/06/26 09:16:39;;;;;;;18.15;6.30;;;;;;;24.24;57.77;99024.58;2399591;74;20998;-67
2021/06/26 09:19:42;;;;;;;19.40;6.33;;;;;;;24.10;56.80;99021.66;2368880;74;20972;-69
2021/06/26 09:22:43;;;;;;;19.23;7.78;;;;;;;24.26;57.32;99014.02;2399731;74;21477;-68
2021/06/26 09:25:45;;;;;;;17.77;6.80;;;;;;;24.46;58.28;99011.70;2399782;74;20952;-69
2021/06/26 09:28:46;;;;;;;20.05;6.58;;;;;;;24.52;58.18;99024.91;2399738;74;21462;-68
2021/06/26 09:31:48;;;;;;;18.45;6.50;;;;;;;24.51;57.00;99012.02;2398753;74;20988;-69
2021/06/26 09:34:50;;;;;;;19.87;6.28;;;;;;;24.58;56.90;99011.30;2394900;74;21531;-69
2021/06/26 09:37:52;;;;;;;18.20;6.08;;;;;;;24.53;58.54;99005.96;2395107;74;21047;-68
2021/06/26 09:40:53;;;;;;;15.70;6.30;;;;;;;24.50;55.24;99013.55;2394967;74;21067;-68
2021/06/26 09:43:55;;;;;;;18.32;6.65;;;;;;;24.83;56.58;99011.97;2395074;74;21043;-68
2021/06/26 09:46:56;;;;;;;18.17;6.58;;;;;;;25.25;56.73;99012.70;2395231;74;21051;-69
2021/06/26 09:49:58;;;;;;;20.05;6.12;;;;;;;25.57;56.12;99012.08;2395079;74;21042;-68
2021/06/26 09:53:00;;;;;;;18.05;5.70;;;;;;;25.52;53.98;99016.33;2395020;74;21523;-69
2021/06/26 09:56:02;;;;;;;17.73;5.72;;;;;;;25.30;54.26;99019.38;2394945;74;21001;-69
2021/06/26 09:59:03;;;;;;;12.63;4.67;;;;;;;25.04;55.10;99020.64;2395052;74;21518;-69
2021/06/26 10:02:05;;;;;;;14.80;4.50;;;;;;;24.97;52.92;99012.51;2395094;74;21039;-69
2021/06/26 10:05:07;;;;;;;12.63;4.80;;;;;;;24.98;52.45;99014.67;2394996;74;21032;-68
2021/06/26 10:08:08;;;;;;;17.17;5.08;;;;;;;25.00;52.86;99005.43;2394946;74;21044;-69
2021/06/26 10:14:13;;;;;;;17.02;6.10;;;;;;;25.30;53.46;99002.78;2362781;74;21039;-69
2021/06/26 10:17:15;;;;;;;18.48;5.65;;;;;;;25.27;52.94;98994.25;2395311;74;20968;-70
2021/06/26 10:20:17;;;;;;;15.00;5.30;;;;;;;25.28;53.15;99018.74;2395286;74;20957;-69
2021/06/26 10:23:19;;;;;;;15.60;4.50;;;;;;;25.13;53.25;99009.31;2395021;74;21054;-68
2021/06/26 10:26:20;;;;;;;12.33;4.70;;;;;;;24.89;54.14;99008.55;2395146;74;21521;-69
2021/06/26 10:29:22;;;;;;;13.98;4.45;;;;;;;25.02;54.18;99018.14;2394649;74;21087;-68
2021/06/26 10:32:24;;;;;;;16.42;5.00;;;;;;;25.27;51.83;99008.53;2395212;74;21099;-68
2021/06/26 10:35:26;;;;;;;15.48;4.30;;;;;;;25.84;50.97;99014.27;2394449;74;21523;-68
2021/06/26 10:38:27;;;;;;;12.13;4.50;;;;;;;26.20;52.59;98998.68;2394987;74;21060;-68
2021/06/26 10:41:29;;;;;;;11.57;3.65;;;;;;;25.57;53.14;99011.22;2395246;74;21063;-66
2021/06/26 10:44:30;;;;;;;6.75;2.95;;;;;;;24.68;53.74;99020.81;2394992;74;20997;-69
2021/06/26 10:47:31;;;;;;;10.60;3.95;;;;;;;24.23;54.46;99030.98;2395040;74;21058;-70
2021/06/26 10:50:36;;;;;;;12.50;3.65;;;;;;;24.11;56.19;99023.85;2395145;74;20992;-65
2021/06/26 10:53:37;;;;;;;13.00;4.03;;;;;;;24.17;56.23;99021.28;2394876;74;20948;-69
2021/06/26 10:56:39;;;;;;;15.68;4.22;;;;;;;24.14;55.25;99027.00;2395076;74;21024;-66
2021/06/26 10:59:40;;;;;;;9.50;3.52;;;;;;;23.90;56.00;99023.11;2395054;74;21031;-65
2021/06/26 11:02:41;;;;;;;15.40;4.35;;;;;;;23.64;56.30;99029.03;2395033;74;21487;-67
2021/06/26 11:05:43;;;;;;;17.25;4.40;;;;;;;23.44;56.66;99020.56;2395020;74;21056;-68
2021/06/26 11:08:44;;;;;;;12.43;4.03;;;;;;;23.21;56.98;99022.31;2394972;74;21067;-70
2021/06/26 11:11:48;;;;;;;14.05;4.20;;;;;;;23.06;57.43;99016.28;2395015;74;21004;-69
2021/06/26 11:14:49;;;;;;;13.53;4.08;;;;;;;23.26;57.88;99005.22;2395011;74;20957;-69
2021/06/26 11:17:51;;;;;;;12.68;4.33;;;;;;;23.50;56.93;99004.32;2395227;74;21012;-68
2021/06/26 11:20:52;;;;;;;10.70;3.80;;;;;;;23.86;56.52;99014.55;2395144;74;21059;-66
2021/06/26 11:23:53;;;;;;;16.67;4.90;;;;;;;24.34;56.25;99015.83;2395151;74;21035;-69
2021/06/26 11:26:55;;;;;;;13.90;4.70;;;;;;;24.82;56.66;99008.95;2395139;74;21519;-69
2021/06/26 11:29:57;;;;;;;18.48;6.12;;;;;;;25.19;54.88;99013.97;2395041;74;21025;-69
2021/06/26 11:32:58;;;;;;;16.42;5.05;;;;;;;25.10;54.08;99011.88;2394968;74;21086;-65
2021/06/26 11:36:00;;;;;;;10.90;4.33;;;;;;;25.03;54.68;99017.14;2395490;74;21020;-68
2021/06/26 11:39:01;;;;;;;27.07;10.05;;;;;;;24.94;54.60;99015.56;2395383;74;21012;-65
2021/06/26 11:42:03;;;;;;;16.00;4.67;;;;;;;24.92;54.80;99008.19;2394681;74;21075;-69
2021/06/26 11:45:05;;;;;;;16.60;5.45;;;;;;;24.97;54.53;99012.51;2395444;74;21035;-69
2021/06/26 11:48:06;;;;;;;15.88;5.42;;;;;;;24.82;55.32;99013.80;2395210;74;21031;-68
2021/06/26 11:51:09;;;;;;;17.95;5.65;;;;;;;24.49;54.99;99010.01;2394715;74;21111;-69
2021/06/26 11:54:11;;;;;;;16.90;6.20;;;;;;;24.18;56.13;99012.24;2395057;74;21519;-69
2021/06/26 11:57:13;;;;;;;20.15;7.15;;;;;;;24.04;56.37;99013.81;2395330;74;20992;-67
2021/06/26 12:00:14;;;;;;;20.55;6.53;;;;;;;24.01;57.52;99013.34;2394968;74;20989;-67
2021/06/26 12:03:16;;;;;;;17.10;6.30;;;;;;;24.06;57.33;99020.85;2395339;74;21016;-68
2021/06/26 12:06:18;;;;;;;16.40;6.45;;;;;;;24.17;57.94;99020.45;2395059;74;21023;-69
2021/06/26 12:09:19;;;;;;;15.50;5.90;;;;;;;24.74;57.84;99012.55;2395425;74;21048;-69
2021/06/26 12:12:21;;;;;;;17.32;4.95;;;;;;;25.10;57.59;99007.86;2395192;74;20913;-69
2021/06/26 12:15:22;;;;;;;14.13;4.40;;;;;;;25.12;55.79;99011.18;2395155;74;21482;-66
2021/06/26 12:18:24;;;;;;;8.83;3.22;;;;;;;24.65;54.33;99009.59;2395394;74;20996;-69
2021/06/26 12:21:25;;;;;;;6.45;3.10;;;;;;;24.17;53.12;99002.52;2395169;74;21487;-68
2021/06/26 12:24:27;;;;;;;8.83;3.30;;;;;;;23.85;53.38;99006.20;2395195;74;21030;-68
2021/06/26 12:27:29;;;;;;;12.58;3.75;;;;;;;23.63;53.53;99018.50;2395090;74;21624;-69
2021/06/26 12:30:31;;;;;;;7.83;3.00;;;;;;;23.41;53.84;99022.77;2395070;74;21024;-68
2021/06/26 12:33:32;;;;;;;7.85;3.22;;;;;;;23.28;54.48;99017.95;2397331;74;21091;-68
2021/06/26 12:36:34;;;;;;;9.25;3.10;;;;;;;23.20;54.69;99023.30;2399628;74;20963;-68
2021/06/26 12:39:35;;;;;;;9.68;3.35;;;;;;;23.07;55.15;99023.80;2399588;74;20951;-68
2021/06/26 12:42:37;;;;;;;;;;;;;;;22.97;55.24;99022.14;2402455;74;20939;-68
2021/06/26 12:45:39;;;;;;;7.17;3.00;;;;;;;22.86;55.59;99016.28;2399621;74;20134;-68
2021/06/26 12:48:43;;;;;;;7.78;3.08;;;;;;;22.82;55.77;99011.28;2399484;74;21004;-69
2021/06/26 12:51:46;;;;;;;8.15;3.30;;;;;;;23.00;55.51;99013.78;2368908;74;21561;-67
2021/06/26 12:54:47;;;;;;;11.40;3.42;;;;;;;23.15;56.34;99019.81;2399475;74;21498;-68
2021/06/26 12:57:49;;;;;;;10.45;3.70;;;;;;;23.16;55.78;99018.81;2399730;74;20960;-66
2021/06/26 13:00:50;;;;;;;8.65;3.30;;;;;;;23.24;55.98;99011.27;2399691;74;20948;-64
2021/06/26 13:03:52;;;;;;;8.13;3.25;;;;;;;23.27;56.00;99002.89;2399684;74;20952;-69
2021/06/26 13:06:55;;;;;;;8.80;3.00;;;;;;;23.33;56.84;98996.84;2399706;74;21026;-69
2021/06/26 13:09:57;;;;;;;9.08;3.08;;;;;;;23.49;56.34;98987.95;2369398;74;20949;-68
2021/06/26 13:12:59;;;;;;;10.43;3.30;;;;;;;23.73;55.83;98993.69;2399417;74;21359;-69
2021/06/26 13:16:00;;;;;;;10.95;3.83;;;;;;;23.81;56.19;98986.95;2399715;74;20944;-68
2021/06/26 13:19:02;;;;;;;11.48;3.92;;;;;;;23.97;56.18;98988.75;2399642;74;21456;-68
2021/06/26 13:22:03;;;;;;;10.78;3.65;;;;;;;24.36;55.52;98991.84;2399520;74;21022;-68
2021/06/26 13:25:05;;;;;;;11.73;4.20;;;;;;;25.11;52.85;98966.57;2399608;74;20951;-67
2021/06/26 13:28:06;;;;;;;9.70;3.95;;;;;;;25.11;52.85;98966.57;2399533;74;21530;-69
2021/06/26 13:31:08;;;;;;;10.82;4.28;;;;;;;25.69;54.50;98974.83;2399803;74;20948;-67
2021/06/26 13:34:09;;;;;;;15.08;4.08;;;;;;;26.50;53.38;98983.78;2396583;74;21031;-68
2021/06/26 13:37:11;;;;;;;11.63;3.98;;;;;;;26.83;49.31;98982.73;2395153;74;21510;-67
2021/06/26 13:40:12;;;;;;;;;;;;;;;26.79;50.83;98976.93;2398101;74;21009;-69
2021/06/26 13:43:14;;;;;;;6.40;2.70;;;;;;;26.78;47.75;98974.44;2394634;74;20114;-69
2021/06/26 13:46:15;;;;;;;6.20;2.20;;;;;;;26.87;43.73;98967.87;2395104;74;21044;-69
2021/06/26 13:49:16;;;;;;;9.05;2.25;;;;;;;27.01;44.05;98974.19;2394968;74;21003;-69
2021/06/26 13:52:18;;;;;;;;;;;;;;;27.16;44.41;98971.90;2397834;74;20999;-67
2021/06/26 13:55:19;;;;;;;9.00;2.70;;;;;;;27.06;43.56;98964.17;2395084;74;20102;-69
2021/06/26 13:58:21;;;;;;;6.60;2.33;;;;;;;26.65;42.84;98981.00;2395100;74;20997;-69
2021/06/26 14:01:22;;;;;;;5.33;2.15;;;;;;;26.28;44.18;98970.34;2395132;74;21023;-68
2021/06/26 14:04:24;;;;;;;5.00;2.30;;;;;;;26.28;43.64;98984.60;2395323;74;21052;-69
2021/06/26 14:07:25;;;;;;;4.37;2.05;;;;;;;25.82;44.30;98974.68;2395091;74;21027;-68